createdAt,value
2023-04-09T00:01:06.961Z,90.04
2023-04-09T00:03:36.437Z,90.15
2023-04-09T00:06:05.547Z,90.19
2023-04-09T00:08:33.742Z,90.46
2023-04-09T00:11:02.004Z,90.37
2023-04-09T00:16:01.143Z,90.22
2023-04-09T00:18:29.179Z,90.31
2023-04-09T00:20:57.244Z,90.19
2023-04-09T00:23:25.505Z,90.18
2023-04-09T00:25:53.733Z,90.25
2023-04-09T00:28:21.753Z,90.27
2023-04-09T00:30:49.848Z,90.49
2023-04-09T00:33:17.971Z,90.52
2023-04-09T00:35:46.692Z,90.61
2023-04-09T00:38:14.787Z,90.56
2023-04-09T00:40:42.954Z,90.35
2023-04-09T00:43:12.083Z,90.25
2023-04-09T00:45:40.471Z,90.40
2023-04-09T00:48:08.811Z,90.39
2023-04-09T00:50:37.224Z,90.47
2023-04-09T00:53:06.572Z,90.33
2023-04-09T00:55:36.256Z,90.16
2023-04-09T00:58:04.459Z,90.48
2023-04-09T01:00:32.713Z,90.23
2023-04-09T01:03:02.256Z,90.22
2023-04-09T01:05:41.681Z,90.46
2023-04-09T01:08:29.866Z,90.39
2023-04-09T01:11:07.181Z,90.41
2023-04-09T01:13:59.781Z,90.49
2023-04-09T01:16:32.629Z,90.59
2023-04-09T01:19:10.499Z,90.89
2023-04-09T01:21:40.972Z,90.59
2023-04-09T01:24:28.596Z,90.61
2023-04-09T01:27:05.293Z,90.54
2023-04-09T01:29:46.289Z,90.57
2023-04-09T01:32:17.243Z,90.48
2023-04-09T01:34:48.318Z,90.39
2023-04-09T01:37:17.207Z,90.46
2023-04-09T01:39:46.296Z,90.57
2023-04-09T01:42:17.850Z,90.76
2023-04-09T01:44:46.699Z,91.02
2023-04-09T01:47:14.765Z,90.97
2023-04-09T01:49:43.859Z,91.05
2023-04-09T01:52:13.011Z,91.11
2023-04-09T01:54:42.426Z,91.24
2023-04-09T01:57:10.595Z,91.23
2023-04-09T01:59:38.498Z,91.16
2023-04-09T02:02:32.018Z,91.22
2023-04-09T02:05:03.694Z,91.06
2023-04-09T02:07:50.294Z,91.13
2023-04-09T02:10:22.256Z,91.08
2023-04-09T02:12:52.618Z,91.26
2023-04-09T02:15:23.118Z,91.47
2023-04-09T02:17:51.851Z,91.61
2023-04-09T02:20:20.221Z,91.53
2023-04-09T02:22:48.594Z,91.37
2023-04-09T02:25:16.994Z,90.89
2023-04-09T02:27:44.961Z,91.02
2023-04-09T02:30:13.110Z,90.83
2023-04-09T02:32:41.013Z,90.82
2023-04-09T02:35:09.227Z,90.87
2023-04-09T02:37:37.117Z,90.83
2023-04-09T02:40:05.329Z,90.73
2023-04-09T02:42:39.048Z,90.80
2023-04-09T02:45:08.665Z,90.97
2023-04-09T02:47:36.795Z,90.89
2023-04-09T02:50:06.009Z,90.82
2023-04-09T02:52:36.187Z,90.98
2023-04-09T02:55:04.702Z,90.91
2023-04-09T02:57:33.761Z,90.96
2023-04-09T03:00:01.822Z,91.11
2023-04-09T03:02:30.272Z,91.04
2023-04-09T03:04:58.288Z,91.08
2023-04-09T03:07:26.265Z,90.98
2023-04-09T03:09:54.337Z,90.99
2023-04-09T03:12:22.302Z,91.17
2023-04-09T03:14:50.484Z,91.30
2023-04-09T03:17:18.420Z,91.48
2023-04-09T03:19:47.401Z,91.49
2023-04-09T03:22:16.914Z,91.53
2023-04-09T03:24:44.930Z,91.62
2023-04-09T03:27:12.930Z,91.62
2023-04-09T03:29:40.955Z,91.67
2023-04-09T03:32:09.044Z,91.66
2023-04-09T03:34:37.155Z,91.59
2023-04-09T03:37:05.970Z,91.64
2023-04-09T03:39:34.426Z,91.56
2023-04-09T03:42:02.463Z,91.41
2023-04-09T03:44:36.874Z,90.74
2023-04-09T03:47:09.402Z,90.14
2023-04-09T03:49:39.165Z,90.15
2023-04-09T03:52:24.518Z,89.32
2023-04-09T03:55:05.014Z,89.46
2023-04-09T03:57:32.986Z,89.51
2023-04-09T04:00:01.024Z,89.64
2023-04-09T04:02:35.902Z,89.33
2023-04-09T04:05:08.372Z,89.35
2023-04-09T04:07:44.154Z,89.31
2023-04-09T04:10:16.551Z,89.33
2023-04-09T04:12:47.215Z,89.25
2023-04-09T04:15:31.806Z,89.39
2023-04-09T04:18:00.985Z,89.42
2023-04-09T04:20:48.259Z,89.57
2023-04-09T04:23:16.293Z,89.79
2023-04-09T04:25:53.612Z,89.53
2023-04-09T04:28:28.847Z,89.60
2023-04-09T04:30:57.133Z,89.66
2023-04-09T04:33:25.379Z,89.56
2023-04-09T04:36:12.213Z,89.18
2023-04-09T04:38:43.952Z,89.13
2023-04-09T04:41:20.927Z,88.69
2023-04-09T04:43:58.282Z,88.90
2023-04-09T04:46:26.896Z,88.86
2023-04-09T04:48:55.439Z,88.93
2023-04-09T04:51:24.363Z,88.67
2023-04-09T04:54:03.541Z,87.94
2023-04-09T04:56:31.986Z,87.84
2023-04-09T04:59:05.357Z,87.90
2023-04-09T05:01:45.483Z,88.06
2023-04-09T05:04:14.840Z,88.28
2023-04-09T05:06:42.969Z,88.41
2023-04-09T05:09:16.084Z,88.36
2023-04-09T05:11:57.270Z,88.31
2023-04-09T05:14:26.324Z,88.29
2023-04-09T05:16:54.435Z,88.58
2023-04-09T05:19:26.653Z,88.44
2023-04-09T05:22:01.429Z,88.78
2023-04-09T05:24:29.560Z,89.02
2023-04-09T05:26:57.582Z,89.13
2023-04-09T05:29:26.376Z,89.13
2023-04-09T05:31:54.592Z,89.00
2023-04-09T05:34:30.804Z,89.08
2023-04-09T05:36:59.855Z,89.13
2023-04-09T05:39:28.271Z,89.09
2023-04-09T05:41:56.789Z,88.77
2023-04-09T05:44:54.197Z,88.69
2023-04-09T05:47:23.084Z,88.76
2023-04-09T05:50:17.744Z,88.06
2023-04-09T05:52:45.914Z,87.96
2023-04-09T05:55:15.989Z,87.66
2023-04-09T05:57:48.613Z,87.13
2023-04-09T06:00:18.279Z,86.75
2023-04-09T06:02:47.003Z,86.50
2023-04-09T06:05:15.151Z,85.28
2023-04-09T06:07:43.526Z,83.40
2023-04-09T06:10:11.615Z,82.29
2023-04-09T06:12:40.582Z,81.79
2023-04-09T06:15:09.307Z,80.09
2023-04-09T06:17:37.439Z,79.28
2023-04-09T06:20:08.350Z,78.77
2023-04-09T06:22:36.540Z,77.46
2023-04-09T06:25:05.005Z,76.82
2023-04-09T06:27:33.049Z,77.03
2023-04-09T06:30:01.049Z,77.18
2023-04-09T06:32:29.746Z,76.83
2023-04-09T06:34:58.859Z,75.22
2023-04-09T06:37:26.728Z,75.14
2023-04-09T06:40:00.973Z,75.09
2023-04-09T06:42:29.305Z,74.83
2023-04-09T06:45:09.005Z,73.98
2023-04-09T06:47:37.152Z,73.44
2023-04-09T06:50:05.623Z,74.00
2023-04-09T06:52:33.681Z,73.66
2023-04-09T06:55:01.756Z,74.25
2023-04-09T06:57:29.734Z,73.24
2023-04-09T06:59:57.833Z,72.31
2023-04-09T07:02:26.653Z,71.77
2023-04-09T07:04:54.769Z,71.90
2023-04-09T07:07:25.390Z,72.14
2023-04-09T07:09:54.129Z,71.92
2023-04-09T07:12:32.836Z,71.61
2023-04-09T07:15:06.561Z,70.71
2023-04-09T07:17:35.356Z,69.93
2023-04-09T07:20:04.138Z,71.42
2023-04-09T07:22:32.420Z,70.55
2023-04-09T07:25:00.627Z,70.86
2023-04-09T07:27:30.543Z,69.98
2023-04-09T07:29:59.940Z,69.93
2023-04-09T07:32:29.047Z,70.35
2023-04-09T07:34:59.558Z,70.79
2023-04-09T07:37:27.740Z,70.59
2023-04-09T07:39:55.684Z,70.49
2023-04-09T07:42:27.662Z,69.17
2023-04-09T07:44:58.390Z,68.44
2023-04-09T07:47:27.581Z,68.27
2023-04-09T07:49:55.921Z,67.13
2023-04-09T07:52:24.357Z,67.51
2023-04-09T07:54:54.297Z,68.22
2023-04-09T07:57:23.142Z,69.38
2023-04-09T07:59:52.476Z,67.79
2023-04-09T08:02:24.852Z,68.26
2023-04-09T08:04:52.970Z,68.84
2023-04-09T08:07:21.331Z,68.27
2023-04-09T08:09:50.308Z,68.67
2023-04-09T08:12:20.503Z,68.02
2023-04-09T08:14:49.559Z,69.80
2023-04-09T08:17:20.751Z,70.17
2023-04-09T08:19:49.932Z,70.04
2023-04-09T08:22:17.938Z,71.26
2023-04-09T08:24:51.040Z,73.09
2023-04-09T08:27:20.872Z,73.09
2023-04-09T08:29:52.822Z,72.56
2023-04-09T08:32:24.813Z,72.32
2023-04-09T08:34:54.768Z,73.55
2023-04-09T08:37:25.383Z,74.11
2023-04-09T08:39:53.495Z,74.51
2023-04-09T08:42:24.150Z,74.04
2023-04-09T08:44:52.580Z,72.18
2023-04-09T08:47:21.696Z,70.95
2023-04-09T08:49:51.080Z,71.44
2023-04-09T08:52:22.077Z,70.70
2023-04-09T08:54:52.026Z,70.11
2023-04-09T08:57:20.207Z,69.96
2023-04-09T08:59:48.114Z,69.86
2023-04-09T09:02:16.193Z,69.66
2023-04-09T09:04:48.708Z,69.86
2023-04-09T09:07:17.333Z,68.95
2023-04-09T09:09:56.336Z,67.97
2023-04-09T09:12:32.035Z,67.57
2023-04-09T09:15:00.290Z,67.88
2023-04-09T09:17:28.402Z,68.31
2023-04-09T09:19:56.949Z,66.94
2023-04-09T09:22:25.955Z,66.18
2023-04-09T09:24:54.467Z,66.86
2023-04-09T09:27:37.147Z,66.82
2023-04-09T09:30:06.112Z,66.81
2023-04-09T09:32:34.546Z,66.72
2023-04-09T09:35:07.259Z,66.04
2023-04-09T09:37:35.457Z,66.68
2023-04-09T09:40:04.391Z,66.89
2023-04-09T09:42:33.408Z,67.13
2023-04-09T09:45:02.236Z,66.77
2023-04-09T09:47:31.525Z,66.84
2023-04-09T09:50:00.681Z,67.01
2023-04-09T09:52:30.847Z,66.11
2023-04-09T09:55:04.449Z,65.00
2023-04-09T09:57:35.298Z,64.75
2023-04-09T10:00:04.794Z,66.07
2023-04-09T10:02:59.819Z,65.03
2023-04-09T10:05:31.462Z,65.04
2023-04-09T10:08:01.800Z,65.85
2023-04-09T10:10:31.293Z,65.31
2023-04-09T10:12:59.875Z,66.04
2023-04-09T10:15:33.050Z,66.02
2023-04-09T10:18:01.984Z,65.49
2023-04-09T10:20:36.646Z,65.53
2023-04-09T10:23:11.714Z,65.32
2023-04-09T10:25:40.658Z,64.98
2023-04-09T10:28:17.489Z,65.08
2023-04-09T10:30:46.407Z,65.25
2023-04-09T10:33:27.168Z,64.67
2023-04-09T10:36:00.086Z,65.67
2023-04-09T10:38:36.464Z,64.98
2023-04-09T10:41:28.768Z,64.57
2023-04-09T10:43:58.530Z,64.13
2023-04-09T10:46:30.778Z,62.01
2023-04-09T10:49:38.328Z,62.02
2023-04-09T10:52:12.632Z,60.96
2023-04-09T10:54:46.745Z,60.31
2023-04-09T10:57:26.636Z,60.36
2023-04-09T10:59:57.125Z,60.58
2023-04-09T11:02:37.618Z,59.98
2023-04-09T11:08:18.619Z,61.67
2023-04-09T11:10:51.916Z,60.79
2023-04-09T11:13:22.436Z,61.37
2023-04-09T11:15:51.176Z,60.98
2023-04-09T11:18:25.248Z,59.08
2023-04-09T11:21:01.782Z,61.06
2023-04-09T11:23:31.377Z,61.09
2023-04-09T11:25:59.947Z,61.48
2023-04-09T11:28:28.514Z,59.39
2023-04-09T11:30:56.526Z,59.04
2023-04-09T11:33:33.596Z,58.47
2023-04-09T11:36:02.914Z,58.96
2023-04-09T11:38:32.930Z,60.23
2023-04-09T11:46:28.892Z,59.49
2023-04-09T11:48:58.263Z,59.57
2023-04-09T11:51:28.705Z,59.49
2023-04-09T11:53:57.460Z,59.29
2023-04-09T11:56:25.910Z,57.22
2023-04-09T11:58:56.470Z,57.66
2023-04-09T12:01:25.171Z,56.87
2023-04-09T12:06:44.368Z,57.20
2023-04-09T12:09:13.963Z,56.43
2023-04-09T12:11:45.610Z,55.81
2023-04-09T12:14:18.148Z,55.77
2023-04-09T12:16:53.470Z,57.52
2023-04-09T12:19:30.175Z,57.76
2023-04-09T12:21:58.540Z,57.51
2023-04-09T12:24:28.137Z,56.59
2023-04-09T12:26:57.396Z,56.55
2023-04-09T12:29:26.866Z,56.89
2023-04-09T12:31:55.504Z,56.43
2023-04-09T12:34:24.242Z,56.60
2023-04-09T12:36:52.561Z,56.33
2023-04-09T12:39:21.161Z,57.20
2023-04-09T12:41:49.441Z,57.78
2023-04-09T12:44:17.394Z,57.65
2023-04-09T12:46:45.656Z,58.03
2023-04-09T12:49:14.620Z,57.50
2023-04-09T12:51:43.189Z,56.57
2023-04-09T12:54:11.615Z,58.93
2023-04-09T12:56:39.977Z,57.72
2023-04-09T12:59:08.179Z,57.90
2023-04-09T13:01:37.798Z,57.38
2023-04-09T13:06:50.318Z,57.37
2023-04-09T13:09:18.736Z,57.02
2023-04-09T13:11:47.037Z,57.41
2023-04-09T13:14:18.415Z,57.62
2023-04-09T13:16:48.022Z,57.47
2023-04-09T13:19:19.232Z,57.09
2023-04-09T13:21:47.527Z,56.50
2023-04-09T13:24:15.511Z,57.56
2023-04-09T13:26:43.626Z,57.53
2023-04-09T13:29:11.650Z,57.19
2023-04-09T13:31:39.771Z,56.76
2023-04-09T13:34:08.869Z,57.52
2023-04-09T13:36:37.037Z,57.43
2023-04-09T13:39:12.672Z,57.36
2023-04-09T13:41:41.388Z,57.64
2023-04-09T13:44:09.757Z,58.02
2023-04-09T13:46:40.891Z,57.93
2023-04-09T13:49:13.902Z,58.22
2023-04-09T13:51:42.609Z,58.19
2023-04-09T13:54:11.802Z,58.89
2023-04-09T13:56:40.982Z,58.57
2023-04-09T13:59:15.097Z,59.04
2023-04-09T14:01:53.739Z,57.63
2023-04-09T14:04:22.925Z,58.45
2023-04-09T14:06:55.276Z,57.28
2023-04-09T14:09:26.329Z,57.23
2023-04-09T14:11:59.063Z,56.88
2023-04-09T14:14:28.679Z,57.99
2023-04-09T14:16:57.811Z,58.16
2023-04-09T14:19:36.558Z,57.94
2023-04-09T14:22:15.047Z,57.98
2023-04-09T14:27:36.492Z,58.60
2023-04-09T14:40:57.825Z,58.00
2023-04-09T14:43:26.882Z,58.60
2023-04-09T14:48:40.947Z,58.24
2023-04-09T14:53:58.480Z,57.82
2023-04-09T14:56:27.480Z,57.40
2023-04-09T14:58:56.775Z,57.60
2023-04-09T15:01:26.571Z,57.36
2023-04-09T15:03:56.098Z,58.20
2023-04-09T15:06:25.212Z,56.99
2023-04-09T15:09:06.618Z,57.29
2023-04-09T15:11:36.170Z,57.47
2023-04-09T15:14:05.387Z,58.38
2023-04-09T15:16:37.666Z,58.60
2023-04-09T15:19:06.328Z,57.32
2023-04-09T15:21:35.010Z,57.11
2023-04-09T15:24:15.709Z,56.22
2023-04-09T15:26:43.986Z,56.64
2023-04-09T15:29:13.391Z,56.24
2023-04-09T15:31:42.356Z,56.53
2023-04-09T15:34:11.348Z,56.34
2023-04-09T15:36:44.424Z,57.56
2023-04-09T15:39:13.835Z,57.61
2023-04-09T15:41:52.661Z,56.82
2023-04-09T15:44:24.832Z,56.88
2023-04-09T15:46:53.381Z,56.06
2023-04-09T15:49:22.422Z,56.76
2023-04-09T15:51:51.078Z,57.26
2023-04-09T15:54:21.790Z,57.82
2023-04-09T15:56:52.858Z,56.35
2023-04-09T15:59:24.136Z,56.41
2023-04-09T16:04:37.575Z,56.29
2023-04-09T16:07:06.035Z,56.76
2023-04-09T16:09:34.668Z,56.59
2023-04-09T16:12:04.349Z,56.91
2023-04-09T16:14:36.719Z,56.40
2023-04-09T16:17:05.562Z,56.98
2023-04-09T16:19:35.501Z,56.91
2023-04-09T16:22:04.172Z,56.20
2023-04-09T16:24:35.102Z,56.27
2023-04-09T16:27:03.241Z,57.26
2023-04-09T16:29:31.724Z,57.03
2023-04-09T16:34:48.237Z,56.13
2023-04-09T16:42:42.641Z,57.31
2023-04-09T16:45:11.400Z,57.47
2023-04-09T16:47:40.268Z,57.17
2023-04-09T16:50:10.743Z,57.67
2023-04-09T17:00:58.142Z,57.53
2023-04-09T17:03:26.944Z,56.86
2023-04-09T17:05:57.521Z,56.93
2023-04-09T17:08:32.160Z,57.32
2023-04-09T17:11:04.569Z,57.38
2023-04-09T17:16:20.394Z,57.11
2023-04-09T17:18:53.011Z,57.34
2023-04-09T17:21:22.467Z,57.08
2023-04-09T17:24:04.959Z,57.22
2023-04-09T17:26:35.240Z,57.68
2023-04-09T17:29:03.844Z,57.63
2023-04-09T17:31:34.914Z,57.32
2023-04-09T17:34:04.892Z,57.82
2023-04-09T17:36:43.328Z,57.90
2023-04-09T17:39:15.762Z,58.33
2023-04-09T17:41:44.480Z,58.98
2023-04-09T17:44:16.854Z,58.59
2023-04-09T17:46:46.322Z,58.82
2023-04-09T17:49:14.778Z,59.06
2023-04-09T17:51:43.616Z,59.51
2023-04-09T17:54:13.438Z,60.17
2023-04-09T17:56:42.839Z,60.27
2023-04-09T17:59:11.735Z,60.27
2023-04-09T18:01:41.415Z,60.98
2023-04-09T18:05:39.650Z,60.90
2023-04-09T18:08:26.511Z,62.09
2023-04-09T18:11:13.137Z,61.97
2023-04-09T18:13:55.313Z,62.24
2023-04-09T18:16:36.152Z,62.23
2023-04-09T18:19:13.122Z,62.50
2023-04-09T18:21:44.433Z,62.56
2023-04-09T18:24:20.704Z,62.59
2023-04-09T18:26:54.196Z,63.00
2023-04-09T18:29:23.270Z,63.53
2023-04-09T18:31:52.315Z,64.29
2023-04-09T18:34:22.339Z,64.85
2023-04-09T18:36:51.051Z,65.23
2023-04-09T18:39:19.768Z,65.85
2023-04-09T18:41:54.592Z,66.18
2023-04-09T18:44:22.870Z,67.07
2023-04-09T18:46:54.621Z,67.36
2023-04-09T18:49:22.731Z,67.29
2023-04-09T18:51:51.457Z,67.52
2023-04-09T18:54:19.565Z,67.36
2023-04-09T18:56:48.620Z,67.16
2023-04-09T18:59:17.325Z,67.50
2023-04-09T19:01:46.054Z,67.85
2023-04-09T19:04:14.247Z,68.19
2023-04-09T19:06:50.777Z,68.57
2023-04-09T19:09:19.084Z,68.81
2023-04-09T19:11:47.319Z,69.11
2023-04-09T19:14:15.970Z,69.24
2023-04-09T19:16:44.593Z,69.33
2023-04-09T19:19:12.788Z,69.47
2023-04-09T19:21:41.326Z,69.56
2023-04-09T19:24:09.555Z,69.87
2023-04-09T19:26:39.034Z,69.82
2023-04-09T19:29:07.517Z,70.44
2023-04-09T19:31:36.451Z,70.80
2023-04-09T19:34:06.133Z,71.06
2023-04-09T19:36:34.891Z,71.39
2023-04-09T19:39:03.784Z,71.73
2023-04-09T19:41:32.673Z,72.00
2023-04-09T19:44:01.671Z,72.77
2023-04-09T19:46:30.461Z,72.41
2023-04-09T19:48:58.932Z,71.97
2023-04-09T19:51:28.043Z,72.38
2023-04-09T19:53:56.872Z,72.26
2023-04-09T19:56:25.883Z,72.80
2023-04-09T19:58:54.327Z,73.25
2023-04-09T20:01:22.984Z,72.62
2023-04-09T20:03:54.156Z,72.37
2023-04-09T20:06:23.090Z,72.63
2023-04-09T20:08:51.852Z,72.99
2023-04-09T20:11:22.120Z,73.19
2023-04-09T20:13:50.663Z,73.71
2023-04-09T20:16:18.710Z,74.09
2023-04-09T20:18:47.687Z,74.42
2023-04-09T20:21:15.678Z,74.43
2023-04-09T20:23:45.510Z,74.81
2023-04-09T20:26:13.863Z,75.06
2023-04-09T20:28:42.748Z,75.13
2023-04-09T20:31:10.894Z,75.43
2023-04-09T20:33:38.904Z,75.72
2023-04-09T20:36:15.888Z,75.60
2023-04-09T20:38:44.345Z,75.12
2023-04-09T20:41:12.547Z,75.10
2023-04-09T20:43:40.724Z,75.03
2023-04-09T20:46:08.903Z,74.96
2023-04-09T20:48:37.057Z,75.14
2023-04-09T20:51:11.052Z,75.41
2023-04-09T20:53:39.505Z,75.16
2023-04-09T20:56:09.142Z,74.96
2023-04-09T20:58:37.439Z,74.94
2023-04-09T21:01:07.601Z,74.98
2023-04-09T21:03:37.596Z,74.59
2023-04-09T21:06:06.230Z,74.86
2023-04-09T21:08:34.584Z,74.96
2023-04-09T21:11:03.068Z,74.89
2023-04-09T21:13:40.400Z,74.78
2023-04-09T21:16:18.924Z,74.80
2023-04-09T21:18:47.159Z,75.01
2023-04-09T21:21:15.709Z,75.30
2023-04-09T21:23:43.745Z,75.65
2023-04-09T21:26:12.014Z,75.56
2023-04-09T21:28:40.390Z,75.77
2023-04-09T21:31:11.203Z,75.92
2023-04-09T21:33:39.417Z,75.77
2023-04-09T21:36:08.113Z,76.03
2023-04-09T21:38:36.595Z,76.17
2023-04-09T21:41:05.262Z,76.41
2023-04-09T21:43:34.755Z,76.41
2023-04-09T21:46:03.179Z,76.59
2023-04-09T21:48:31.928Z,76.70
2023-04-09T21:50:59.883Z,76.86
2023-04-09T21:53:28.551Z,76.79
2023-04-09T21:55:56.701Z,76.94
2023-04-09T21:58:24.708Z,76.89
2023-04-09T22:00:53.193Z,77.23
2023-04-09T22:03:23.598Z,77.43
2023-04-09T22:05:52.078Z,77.48
2023-04-09T22:08:23.797Z,77.38
2023-04-09T22:10:52.088Z,77.61
2023-04-09T22:13:23.093Z,77.75
2023-04-09T22:15:51.231Z,77.77
2023-04-09T22:18:19.306Z,78.08
2023-04-09T22:20:50.796Z,78.27
2023-04-09T22:23:18.729Z,78.38
2023-04-09T22:25:46.725Z,78.57
2023-04-09T22:28:14.891Z,78.71
2023-04-09T22:30:42.802Z,79.07
2023-04-09T22:33:10.732Z,79.16
2023-04-09T22:35:38.755Z,79.30
2023-04-09T22:38:07.200Z,79.33
2023-04-09T22:40:35.579Z,79.28
2023-04-09T22:43:03.793Z,79.57
2023-04-09T22:45:32.290Z,79.56
2023-04-09T22:48:00.700Z,79.66
2023-04-09T22:50:28.964Z,79.77
2023-04-09T22:52:57.010Z,79.60
2023-04-09T22:55:25.533Z,79.78
2023-04-09T22:57:54.967Z,79.91
2023-04-09T23:00:26.899Z,80.06
2023-04-09T23:02:55.706Z,80.29
2023-04-09T23:05:23.754Z,80.16
2023-04-09T23:07:52.835Z,80.06
2023-04-09T23:10:21.465Z,79.94
2023-04-09T23:12:49.584Z,79.75
2023-04-09T23:15:17.989Z,79.44
2023-04-09T23:17:46.355Z,79.15
2023-04-09T23:20:15.318Z,78.67
2023-04-09T23:22:45.770Z,78.38
2023-04-09T23:25:14.527Z,78.13
2023-04-09T23:27:42.823Z,77.89
2023-04-09T23:30:11.741Z,77.90
2023-04-09T23:32:39.722Z,77.52
2023-04-09T23:35:07.968Z,77.33
2023-04-09T23:37:36.240Z,77.35
2023-04-09T23:40:04.606Z,77.45
2023-04-09T23:42:35.559Z,77.84
2023-04-09T23:45:07.594Z,77.71
2023-04-09T23:47:37.374Z,77.82
2023-04-09T23:50:07.815Z,77.88
2023-04-09T23:52:38.953Z,77.96
2023-04-09T23:55:08.918Z,78.00
2023-04-09T23:57:37.732Z,78.42
